createdAt,value
2019-03-04T00:00:53.625Z,1.80
2019-03-04T00:03:23.033Z,1.60
2019-03-04T00:05:52.426Z,1.90
2019-03-04T00:08:21.863Z,1.50
2019-03-04T00:10:51.266Z,1.70
2019-03-04T00:13:20.701Z,3.50
2019-03-04T00:15:50.100Z,2.00
2019-03-04T00:18:19.508Z,1.90
2019-03-04T00:20:48.923Z,1.80
2019-03-04T00:23:18.339Z,2.10
2019-03-04T00:25:47.742Z,2.10
2019-03-04T00:28:17.221Z,2.17
2019-03-04T00:30:46.690Z,1.93
2019-03-04T00:33:16.175Z,2.00
2019-03-04T00:35:45.647Z,1.70
2019-03-04T00:38:15.057Z,2.00
2019-03-04T00:40:44.548Z,1.83
2019-03-04T00:43:13.943Z,2.30
2019-03-04T00:45:43.380Z,1.73
2019-03-04T00:48:13.076Z,1.77
2019-03-04T00:50:42.498Z,1.80
2019-03-04T00:53:11.914Z,1.67
2019-03-04T00:55:41.316Z,1.70
2019-03-04T00:58:11.073Z,2.10
2019-03-04T01:00:40.543Z,1.60
2019-03-04T01:03:09.961Z,1.60
2019-03-04T01:09:41.489Z,1.50
2019-03-04T01:12:11.170Z,1.50
2019-03-04T01:14:40.571Z,1.63
2019-03-04T01:17:10.086Z,1.50
2019-03-04T01:19:39.897Z,1.53
2019-03-04T01:22:09.338Z,1.33
2019-03-04T01:24:39.041Z,1.50
2019-03-04T01:27:08.538Z,1.50
2019-03-04T01:29:37.973Z,1.20
2019-03-04T01:32:07.541Z,1.53
2019-03-04T01:34:36.969Z,1.47
2019-03-04T01:37:06.670Z,1.40
2019-03-04T01:39:36.120Z,1.40
2019-03-04T01:42:05.621Z,1.30
2019-03-04T01:44:35.054Z,1.47
2019-03-04T01:47:04.494Z,1.20
2019-03-04T01:49:33.883Z,1.30
2019-03-04T01:52:03.360Z,2.35
2019-03-04T01:54:32.808Z,1.00
2019-03-04T01:57:02.232Z,1.00
2019-03-04T01:59:31.647Z,1.00
2019-03-04T02:02:01.405Z,1.10
2019-03-04T02:04:30.850Z,1.00
2019-03-04T02:07:00.318Z,1.17
2019-03-04T02:09:29.791Z,0.90
2019-03-04T02:11:59.227Z,1.10
2019-03-04T02:14:29.138Z,0.90
2019-03-04T02:16:58.569Z,0.70
2019-03-04T02:19:28.004Z,1.03
2019-03-04T02:21:57.434Z,0.87
2019-03-04T02:24:27.096Z,1.03
2019-03-04T02:26:56.565Z,1.17
2019-03-04T02:29:26.062Z,1.53
2019-03-04T02:31:55.482Z,1.40
2019-03-04T02:34:25.274Z,1.23
2019-03-04T02:36:54.740Z,1.50
2019-03-04T02:39:24.171Z,1.50
2019-03-04T02:41:53.685Z,1.30
2019-03-04T02:44:23.133Z,1.40
2019-03-04T02:46:53.271Z,1.37
2019-03-04T02:49:22.711Z,1.53
2019-03-04T02:51:52.116Z,1.97
2019-03-04T02:54:21.565Z,1.30
2019-03-04T02:56:50.994Z,1.60
2019-03-04T02:59:20.568Z,1.50
2019-03-04T03:01:49.968Z,1.60
2019-03-04T03:04:19.379Z,1.90
2019-03-04T03:06:48.961Z,1.63
2019-03-04T03:09:18.713Z,1.57
2019-03-04T03:11:48.308Z,1.70
2019-03-04T03:14:17.772Z,1.90
2019-03-04T03:16:47.254Z,1.90
2019-03-04T03:19:16.653Z,1.50
2019-03-04T03:21:46.074Z,1.83
2019-03-04T03:24:15.516Z,1.70
2019-03-04T03:26:44.943Z,1.70
2019-03-04T03:29:14.387Z,1.80
2019-03-04T03:31:43.815Z,2.00
2019-03-04T03:34:13.752Z,1.93
2019-03-04T03:36:43.233Z,1.80
2019-03-04T03:39:12.928Z,1.83
2019-03-04T03:41:42.363Z,1.83
2019-03-04T03:44:11.852Z,1.87
2019-03-04T03:46:41.269Z,2.30
2019-03-04T03:49:10.717Z,1.70
2019-03-04T03:51:40.128Z,1.83
2019-03-04T03:54:09.565Z,1.80
2019-03-04T03:56:38.989Z,1.90
2019-03-04T03:59:08.505Z,1.60
2019-03-04T04:01:37.931Z,1.70
2019-03-04T04:04:07.403Z,1.53
2019-03-04T04:06:36.841Z,1.20
2019-03-04T04:09:06.993Z,1.50
2019-03-04T04:11:36.448Z,1.20
2019-03-04T04:14:05.857Z,1.47
2019-03-04T04:16:35.288Z,1.30
2019-03-04T04:19:04.772Z,1.03
2019-03-04T04:21:34.189Z,0.90
2019-03-04T04:24:03.654Z,1.10
2019-03-04T04:26:33.135Z,0.90
2019-03-04T04:29:07.147Z,1.00
2019-03-04T04:31:36.600Z,1.30
2019-03-04T04:34:06.170Z,1.10
2019-03-04T04:36:35.670Z,1.20
2019-03-04T04:39:06.407Z,1.23
2019-03-04T04:41:35.840Z,0.90
2019-03-04T04:44:05.332Z,1.00
2019-03-04T04:46:52.494Z,1.07
2019-03-04T04:49:21.988Z,1.03
2019-03-04T04:51:51.385Z,1.20
2019-03-04T04:54:20.827Z,0.80
2019-03-04T04:56:50.257Z,1.10
2019-03-04T04:59:19.663Z,0.80
2019-03-04T05:01:49.481Z,0.80
2019-03-04T05:04:18.896Z,0.90
2019-03-04T05:06:48.522Z,0.80
2019-03-04T05:09:17.992Z,0.90
2019-03-04T05:11:47.400Z,0.80
2019-03-04T05:14:16.862Z,0.90
2019-03-04T05:16:46.393Z,0.70
2019-03-04T05:19:15.831Z,0.57
2019-03-04T05:21:45.400Z,0.60
2019-03-04T05:24:14.827Z,0.70
2019-03-04T05:26:44.371Z,0.80
2019-03-04T05:29:13.847Z,1.53
2019-03-04T05:31:43.374Z,2.37
2019-03-04T05:34:13.046Z,2.03
2019-03-04T05:36:42.452Z,2.47
2019-03-04T05:39:11.863Z,2.63
2019-03-04T05:41:41.358Z,2.40
2019-03-04T05:44:11.052Z,2.13
2019-03-04T05:46:40.520Z,7.47
2019-03-04T05:49:09.944Z,1.93
2019-03-04T05:51:39.347Z,2.03
2019-03-04T05:54:08.754Z,1.97
2019-03-04T05:56:38.179Z,1.83
2019-03-04T05:59:07.606Z,1.63
2019-03-04T06:01:37.159Z,1.53
2019-03-04T06:04:07.297Z,1.60
2019-03-04T06:06:50.630Z,1.60
2019-03-04T06:09:20.027Z,1.77
2019-03-04T06:12:08.881Z,1.93
2019-03-04T06:14:38.286Z,1.37
2019-03-04T06:17:07.683Z,1.70
2019-03-04T06:19:37.117Z,1.90
2019-03-04T06:22:06.532Z,1.90
2019-03-04T06:24:36.049Z,1.63
2019-03-04T06:27:05.599Z,1.50
2019-03-04T06:29:35.010Z,2.10
2019-03-04T06:32:04.578Z,1.37
2019-03-04T06:34:34.051Z,1.80
2019-03-04T06:37:03.801Z,1.60
2019-03-04T06:39:33.231Z,2.07
2019-03-04T06:42:02.635Z,1.90
2019-03-04T06:44:32.390Z,1.30
2019-03-04T06:47:01.811Z,1.90
2019-03-04T06:49:31.268Z,1.33
2019-03-04T06:52:00.672Z,1.40
2019-03-04T06:54:46.494Z,1.67
2019-03-04T06:57:16.543Z,1.57
2019-03-04T07:00:14.969Z,1.27
2019-03-04T07:02:46.320Z,1.20
2019-03-04T07:05:45.627Z,1.10
2019-03-04T07:08:39.803Z,1.40
2019-03-04T07:11:09.848Z,1.50
2019-03-04T07:13:39.266Z,1.30
2019-03-04T07:16:08.744Z,1.33
2019-03-04T07:18:38.355Z,1.60
2019-03-04T07:21:07.845Z,1.70
2019-03-04T07:23:37.282Z,1.60
2019-03-04T07:26:06.756Z,1.40
2019-03-04T07:28:36.179Z,1.57
2019-03-04T07:31:06.027Z,1.77
2019-03-04T07:33:35.723Z,1.67
2019-03-04T07:36:05.551Z,1.60
2019-03-04T07:38:45.622Z,1.97
2019-03-04T07:41:15.120Z,2.13
2019-03-04T07:43:44.590Z,1.80
2019-03-04T07:46:14.033Z,2.37
2019-03-04T07:48:43.448Z,1.83
2019-03-04T07:51:15.286Z,2.30
2019-03-04T07:53:46.725Z,2.03
2019-03-04T07:56:16.794Z,2.40
2019-03-04T07:58:46.213Z,2.37
2019-03-04T08:01:15.618Z,2.10
2019-03-04T08:03:45.111Z,2.27
2019-03-04T08:06:14.727Z,1.90
2019-03-04T08:09:04.797Z,1.70
2019-03-04T08:12:07.348Z,1.70
2019-03-04T08:14:36.776Z,1.87
2019-03-04T08:17:06.252Z,1.20
2019-03-04T08:19:35.651Z,1.00
2019-03-04T08:22:05.214Z,0.90
2019-03-04T08:24:34.649Z,0.90
2019-03-04T08:27:04.501Z,0.97
2019-03-04T08:29:33.991Z,0.60
2019-03-04T08:32:03.412Z,0.60
2019-03-04T08:34:33.141Z,0.80
2019-03-04T08:37:02.594Z,0.70
2019-03-04T08:39:31.992Z,1.03
2019-03-04T08:42:01.432Z,0.60
2019-03-04T08:44:31.175Z,0.60
2019-03-04T08:47:00.822Z,1.60
2019-03-04T08:49:30.227Z,0.77
2019-03-04T08:51:59.677Z,0.77
2019-03-04T08:54:29.133Z,0.97
2019-03-04T08:57:03.903Z,0.50
2019-03-04T08:59:31.691Z,0.50
2019-03-04T09:02:01.097Z,0.60
2019-03-04T09:04:30.507Z,0.63
2019-03-04T09:06:59.926Z,0.80
2019-03-04T09:09:29.322Z,0.60
2019-03-04T09:11:58.778Z,0.80
2019-03-04T09:14:28.365Z,0.80
2019-03-04T09:16:57.799Z,0.70
2019-03-04T09:19:27.226Z,0.70
2019-03-04T09:21:56.637Z,1.07
2019-03-04T09:24:26.147Z,0.87
2019-03-04T09:26:55.554Z,1.10
2019-03-04T09:29:24.992Z,1.10
2019-03-04T09:31:54.397Z,1.23
2019-03-04T09:34:23.822Z,1.50
2019-03-04T09:36:53.236Z,1.90
2019-03-04T09:39:22.708Z,2.10
2019-03-04T09:41:53.873Z,2.03
2019-03-04T09:44:23.279Z,1.60
2019-03-04T09:46:52.682Z,1.83
2019-03-04T09:49:22.185Z,1.50
2019-03-04T09:51:51.589Z,1.30
2019-03-04T09:54:21.003Z,1.43
2019-03-04T09:56:50.403Z,1.13
2019-03-04T09:59:19.810Z,1.60
2019-03-04T10:01:51.942Z,2.50
2019-03-04T10:04:43.587Z,2.00
2019-03-04T10:07:35.630Z,2.47
2019-03-04T10:10:21.212Z,3.20
2019-03-04T10:13:13.600Z,3.47
2019-03-04T10:15:56.589Z,3.90
2019-03-04T10:19:05.576Z,4.37
2019-03-04T10:22:00.405Z,3.60
2019-03-04T10:25:00.162Z,3.87
2019-03-04T10:27:46.173Z,3.40
2019-03-04T10:30:26.066Z,2.90
2019-03-04T10:33:21.177Z,3.20
2019-03-04T10:36:16.389Z,3.03
2019-03-04T10:39:05.112Z,2.57
2019-03-04T10:42:01.759Z,2.70
2019-03-04T10:44:41.883Z,2.70
2019-03-04T10:47:11.325Z,2.23
2019-03-04T10:49:41.207Z,2.57
2019-03-04T10:52:10.699Z,2.67
2019-03-04T10:54:40.132Z,3.23
2019-03-04T10:57:09.543Z,3.73
2019-03-04T10:59:39.052Z,3.03
2019-03-04T11:02:08.942Z,3.50
2019-03-04T11:04:38.391Z,4.80
2019-03-04T11:07:07.899Z,4.67
2019-03-04T11:09:37.342Z,3.50
2019-03-04T11:12:06.832Z,4.40
2019-03-04T11:14:36.314Z,4.20
2019-03-04T11:17:05.798Z,3.97
2019-03-04T11:19:35.249Z,3.13
2019-03-04T11:22:04.823Z,3.30
2019-03-04T11:24:34.336Z,2.47
2019-03-04T11:27:04.100Z,2.90
2019-03-04T11:29:33.516Z,2.30
2019-03-04T11:32:03.370Z,2.00
2019-03-04T11:34:32.816Z,2.40
2019-03-04T11:37:02.616Z,2.07
2019-03-04T11:39:45.772Z,1.87
2019-03-04T11:42:15.271Z,2.33
2019-03-04T11:44:44.842Z,2.17
2019-03-04T11:47:14.443Z,2.07
2019-03-04T11:49:43.921Z,2.40
2019-03-04T11:52:13.369Z,2.60
2019-03-04T11:54:42.815Z,2.20
2019-03-04T11:57:12.383Z,2.40
2019-03-04T11:59:41.887Z,2.27
2019-03-04T12:02:13.022Z,2.00
2019-03-04T12:04:42.421Z,1.60
2019-03-04T12:07:11.865Z,1.57
2019-03-04T12:09:41.285Z,1.37
2019-03-04T12:12:11.280Z,2.03
2019-03-04T12:14:40.828Z,1.73
2019-03-04T12:17:10.323Z,1.40
2019-03-04T12:19:39.736Z,1.60
2019-03-04T12:22:09.223Z,1.60
2019-03-04T12:24:38.943Z,1.50
2019-03-04T12:27:08.592Z,1.87
2019-03-04T12:29:38.668Z,1.70
2019-03-04T12:32:09.964Z,2.20
2019-03-04T12:34:39.447Z,1.60
2019-03-04T12:37:11.451Z,1.40
2019-03-04T12:39:40.995Z,1.60
2019-03-04T12:42:10.506Z,1.30
2019-03-04T12:44:41.544Z,1.17
2019-03-04T12:47:11.237Z,1.30
2019-03-04T12:49:40.655Z,1.07
2019-03-04T12:52:10.198Z,1.10
2019-03-04T12:54:40.103Z,1.20
2019-03-04T12:57:09.525Z,1.10
2019-03-04T12:59:38.958Z,0.80
2019-03-04T13:02:08.622Z,1.00
2019-03-04T13:04:38.087Z,1.07
2019-03-04T13:07:07.540Z,1.30
2019-03-04T13:09:37.027Z,1.40
2019-03-04T13:12:12.411Z,1.30
2019-03-04T13:14:41.851Z,1.10
2019-03-04T13:17:11.265Z,1.10
2019-03-04T13:19:40.769Z,1.30
2019-03-04T13:22:10.253Z,1.10
2019-03-04T13:24:39.715Z,1.60
2019-03-04T13:27:09.265Z,1.70
2019-03-04T13:29:38.675Z,1.00
2019-03-04T13:32:08.401Z,1.30
2019-03-04T13:34:38.004Z,1.13
2019-03-04T13:37:07.504Z,0.90
2019-03-04T13:39:37.445Z,1.30
2019-03-04T13:42:06.930Z,1.10
2019-03-04T13:44:36.885Z,1.00
2019-03-04T13:47:06.457Z,1.40
2019-03-04T13:49:35.940Z,1.37
2019-03-04T13:52:05.504Z,1.23
2019-03-04T13:54:35.121Z,1.30
2019-03-04T13:57:04.665Z,1.27
2019-03-04T13:59:34.137Z,1.07
2019-03-04T14:02:03.771Z,1.27
2019-03-04T14:04:33.216Z,1.07
2019-03-04T14:07:02.660Z,1.20
2019-03-04T14:09:32.038Z,1.50
2019-03-04T14:12:01.460Z,1.30
2019-03-04T14:14:31.239Z,0.83
2019-03-04T14:17:00.812Z,0.80
2019-03-04T14:19:30.246Z,1.57
2019-03-04T14:21:59.741Z,0.90
2019-03-04T14:24:29.160Z,0.90
2019-03-04T14:26:58.664Z,0.90
2019-03-04T14:29:28.092Z,0.80
2019-03-04T14:31:57.611Z,0.70
2019-03-04T14:34:27.199Z,0.80
2019-03-04T14:36:56.618Z,0.90
2019-03-04T14:39:26.041Z,0.93
2019-03-04T14:41:57.234Z,1.30
2019-03-04T14:44:26.726Z,1.10
2019-03-04T14:46:56.199Z,1.03
2019-03-04T14:49:25.983Z,1.30
2019-03-04T14:51:55.483Z,1.10
2019-03-04T14:54:25.232Z,1.30
2019-03-04T14:56:54.760Z,1.30
2019-03-04T14:59:24.154Z,1.70
2019-03-04T15:01:53.926Z,1.77
2019-03-04T15:04:23.359Z,1.70
2019-03-04T15:06:52.795Z,1.50
2019-03-04T15:09:22.366Z,1.83
2019-03-04T15:11:51.833Z,1.70
2019-03-04T15:14:28.458Z,2.03
2019-03-04T15:17:03.345Z,2.07
2019-03-04T15:19:29.183Z,1.70
2019-03-04T15:21:59.071Z,1.67
2019-03-04T15:24:28.623Z,1.90
2019-03-04T15:26:58.192Z,1.73
2019-03-04T15:29:27.677Z,1.60
2019-03-04T15:31:57.258Z,2.03
2019-03-04T15:34:26.950Z,1.77
2019-03-04T15:36:56.465Z,1.90
2019-03-04T15:39:26.067Z,2.17
2019-03-04T15:41:55.771Z,1.73
2019-03-04T15:44:25.268Z,2.00
2019-03-04T15:46:54.845Z,1.67
2019-03-04T15:49:24.311Z,1.80
2019-03-04T15:51:53.826Z,2.27
2019-03-04T15:54:23.533Z,1.57
2019-03-04T15:56:53.044Z,1.60
2019-03-04T15:59:22.888Z,1.80
2019-03-04T16:01:52.396Z,1.60
2019-03-04T16:04:21.990Z,1.73
2019-03-04T16:06:51.549Z,1.70
2019-03-04T16:09:21.104Z,1.77
2019-03-04T16:11:52.225Z,1.73
2019-03-04T16:14:21.926Z,1.50
2019-03-04T16:16:51.438Z,2.10
2019-03-04T16:19:21.023Z,1.37
2019-03-04T16:21:50.737Z,1.63
2019-03-04T16:24:20.238Z,1.63
2019-03-04T16:26:50.319Z,1.50
2019-03-04T16:29:21.295Z,1.93
2019-03-04T16:31:53.831Z,1.47
2019-03-04T16:34:23.769Z,2.33
2019-03-04T16:36:53.144Z,1.50
2019-03-04T16:39:22.843Z,1.73
2019-03-04T16:41:54.141Z,2.20
2019-03-04T16:44:23.582Z,1.67
2019-03-04T16:46:53.091Z,2.50
2019-03-04T16:49:22.527Z,1.63
2019-03-04T16:51:52.096Z,4.93
2019-03-04T16:54:21.599Z,7.97
2019-03-04T16:56:51.019Z,2.30
2019-03-04T16:59:20.482Z,1.97
2019-03-04T17:01:49.972Z,2.07
2019-03-04T17:04:19.954Z,1.97
2019-03-04T17:06:51.145Z,1.67
2019-03-04T17:09:22.378Z,1.40
2019-03-04T17:11:53.901Z,2.03
2019-03-04T17:14:23.100Z,1.80
2019-03-04T17:16:54.054Z,1.97
2019-03-04T17:19:25.035Z,1.90
2019-03-04T17:21:54.779Z,1.97
2019-03-04T17:24:24.420Z,2.00
2019-03-04T17:26:53.909Z,2.10
2019-03-04T17:29:23.449Z,1.80
2019-03-04T17:31:53.102Z,1.43
2019-03-04T17:34:22.529Z,0.83
2019-03-04T17:36:54.248Z,1.00
2019-03-04T17:39:23.710Z,1.53
2019-03-04T17:41:53.312Z,1.30
2019-03-04T17:44:24.329Z,1.13
2019-03-04T17:46:54.004Z,1.10
2019-03-04T17:49:23.498Z,1.40
2019-03-04T17:51:52.938Z,0.90
2019-03-04T17:54:22.359Z,1.00
2019-03-04T17:56:51.847Z,1.77
2019-03-04T17:59:21.637Z,1.10
2019-03-04T18:01:51.451Z,1.60
2019-03-04T18:04:20.966Z,1.17
2019-03-04T18:06:52.304Z,1.63
2019-03-04T18:09:21.926Z,1.80
2019-03-04T18:11:51.555Z,2.43
2019-03-04T18:14:21.286Z,2.10
2019-03-04T18:16:51.277Z,1.87
2019-03-04T18:19:20.947Z,4.30
2019-03-04T18:21:50.604Z,2.70
2019-03-04T18:24:20.116Z,7.23
2019-03-04T18:26:50.802Z,2.97
2019-03-04T18:29:35.819Z,2.47
2019-03-04T18:32:25.032Z,3.30
2019-03-04T18:35:08.009Z,3.13
2019-03-04T18:37:56.248Z,2.03
2019-03-04T18:40:36.073Z,1.87
2019-03-04T18:43:33.572Z,1.30
2019-03-04T18:46:46.467Z,1.70
2019-03-04T18:49:15.893Z,1.50
2019-03-04T18:51:45.337Z,2.00
2019-03-04T18:54:14.818Z,1.70
2019-03-04T18:56:44.512Z,1.87
2019-03-04T18:59:14.174Z,1.63
2019-03-04T19:01:43.580Z,1.60
2019-03-04T19:04:13.061Z,1.90
2019-03-04T19:06:42.515Z,2.57
2019-03-04T19:09:12.153Z,1.73
2019-03-04T19:11:41.726Z,3.13
2019-03-04T19:14:11.248Z,2.30
2019-03-04T19:16:40.694Z,2.03
2019-03-04T19:19:13.976Z,1.77
2019-03-04T19:21:43.463Z,2.23
2019-03-04T19:24:13.703Z,1.77
2019-03-04T19:26:44.856Z,2.13
2019-03-04T19:29:14.658Z,2.03
2019-03-04T19:31:44.480Z,1.93
2019-03-04T19:34:14.050Z,2.10
2019-03-04T19:36:43.563Z,2.60
2019-03-04T19:39:13.218Z,1.97
2019-03-04T19:41:42.620Z,2.50
2019-03-04T19:44:12.417Z,1.90
2019-03-04T19:46:42.004Z,1.90
2019-03-04T19:49:11.510Z,2.50
2019-03-04T19:51:41.075Z,3.00
2019-03-04T19:54:10.618Z,3.20
2019-03-04T19:56:40.157Z,4.47
2019-03-04T19:59:09.752Z,4.07
2019-03-04T20:01:39.420Z,3.43
2019-03-04T20:04:08.987Z,4.20
2019-03-04T20:06:38.483Z,10.43
2019-03-04T20:09:08.265Z,9.00
2019-03-04T20:11:37.825Z,6.50
2019-03-04T20:14:07.409Z,5.57
2019-03-04T20:16:36.905Z,4.97
2019-03-04T20:19:06.856Z,3.60
2019-03-04T20:21:36.461Z,3.33
2019-03-04T20:24:06.033Z,3.53
2019-03-04T20:26:35.544Z,2.97
2019-03-04T20:29:05.047Z,2.83
2019-03-04T20:31:34.675Z,3.60
2019-03-04T20:34:04.646Z,3.20
2019-03-04T20:36:34.066Z,4.07
2019-03-04T20:39:04.784Z,3.10
2019-03-04T20:41:34.430Z,2.70
2019-03-04T20:44:04.050Z,3.50
2019-03-04T20:46:33.561Z,2.97
2019-03-04T20:49:03.211Z,4.47
2019-03-04T20:51:32.641Z,3.23
2019-03-04T20:54:02.238Z,4.03
2019-03-04T20:56:32.039Z,4.40
2019-03-04T20:59:01.444Z,3.73
2019-03-04T21:01:31.079Z,4.07
2019-03-04T21:04:00.536Z,4.97
2019-03-04T21:06:30.118Z,5.07
2019-03-04T21:08:59.826Z,4.67
2019-03-04T21:11:29.410Z,4.37
2019-03-04T21:13:59.015Z,2.80
2019-03-04T21:16:28.671Z,3.47
2019-03-04T21:18:58.469Z,3.23
2019-03-04T21:21:28.012Z,3.00
2019-03-04T21:23:57.612Z,2.97
2019-03-04T21:26:27.418Z,2.83
2019-03-04T21:29:16.904Z,3.13
2019-03-04T21:31:59.640Z,3.23
2019-03-04T21:35:19.520Z,2.97
2019-03-04T21:37:49.502Z,2.40
2019-03-04T21:40:35.436Z,2.90
2019-03-04T21:43:09.583Z,2.50
2019-03-04T21:45:59.343Z,2.60
2019-03-04T21:48:45.952Z,2.40
2019-03-04T21:51:37.873Z,2.80
2019-03-04T21:54:00.025Z,3.23
2019-03-04T21:57:03.184Z,3.10
2019-03-04T21:59:32.628Z,2.53
2019-03-04T22:02:12.731Z,3.87
2019-03-04T22:04:42.264Z,3.10
2019-03-04T22:07:12.315Z,3.60
2019-03-04T22:09:41.776Z,3.00
2019-03-04T22:12:14.104Z,2.50
2019-03-04T22:14:43.662Z,2.60
2019-03-04T22:17:13.202Z,2.23
2019-03-04T22:19:42.614Z,2.53
2019-03-04T22:22:12.286Z,1.50
2019-03-04T22:24:41.831Z,1.30
2019-03-04T22:27:11.282Z,1.03
2019-03-04T22:29:41.149Z,1.37
2019-03-04T22:32:10.613Z,1.50
2019-03-04T22:34:41.596Z,2.27
2019-03-04T22:37:11.046Z,1.90
2019-03-04T22:39:40.861Z,2.00
2019-03-04T22:42:10.315Z,1.50
2019-03-04T22:44:39.694Z,1.20
2019-03-04T22:47:09.174Z,1.63
2019-03-04T22:49:38.570Z,1.50
2019-03-04T22:52:08.108Z,1.27
2019-03-04T22:54:37.546Z,1.60
2019-03-04T22:57:07.029Z,1.60
2019-03-04T22:59:36.540Z,1.30
2019-03-04T23:02:06.435Z,1.27
2019-03-04T23:04:35.950Z,1.20
2019-03-04T23:07:09.640Z,1.43
2019-03-04T23:09:49.476Z,1.40
2019-03-04T23:12:32.633Z,1.10
2019-03-04T23:15:02.074Z,1.23
2019-03-04T23:17:31.501Z,1.30
2019-03-04T23:20:20.459Z,1.10
2019-03-04T23:22:49.832Z,1.33
2019-03-04T23:25:19.359Z,1.80
2019-03-04T23:27:48.798Z,1.60
2019-03-04T23:30:18.279Z,1.50
2019-03-04T23:32:47.856Z,1.50
2019-03-04T23:35:17.279Z,1.53
2019-03-04T23:37:46.706Z,1.43
2019-03-04T23:40:16.833Z,1.90
2019-03-04T23:42:46.269Z,1.70
2019-03-04T23:45:15.777Z,1.93
2019-03-04T23:47:45.217Z,1.90
2019-03-04T23:50:18.345Z,1.90
2019-03-04T23:52:47.899Z,1.57
2019-03-04T23:55:17.468Z,1.90
2019-03-04T23:57:46.838Z,1.50
